Ingham Composite, Australia
Current Conditions -  °F | °C
As of 1:00 PM on Friday 19 Dec 2014 (Local Time) from YBTL Reporting Station
Scattered Clouds Scattered Clouds  
Wind Chill: 88°   Ceiling: Unl
Heat Index: 91°   Visibility: 6mi
Dew Point: 68°   Wind: 10mph
Humidity: 52%   Direction: 10°N
Pressure: 29.83"   Gusts: NA
Location:  18.63°S, 146.17°E
Report Text: YBTL 190300Z 01009KT 9999 FEW040 SCT280 31/20 Q1010
Loading
Personal Weather Stations






























Interactive Weather Map New forecast layout! Learn more

10-Day Weather Forecast

Advertisements
Track Severe Weather on mobile